Time;durP1;ratioP1;P1;durP2;ratioP2;P2;SDS_P1;SDS_P2;PMS_P1;PMS_P2;Temp;Humidity;BMP_temperature;BMP_pressure;BME280_temperature;BME280_humidity;BME280_pressure;Samples;Min_cycle;Max_cycle;Signal;HPM_P1;HPM_P2
2021/12/07 00:01:28;;;;;;;31.10;21.27;;;2.20;99.90;;;;;;5005820;28;20670;-36
2021/12/07 00:03:55;;;;;;;29.73;20.13;;;2.40;99.90;;;;;;5010075;28;20057;-36
2021/12/07 00:06:22;;;;;;;30.50;20.23;;;2.20;99.90;;;;;;5015109;28;20038;-37
2021/12/07 00:08:51;;;;;;;32.07;21.33;;;2.10;99.90;;;;;;5006090;28;20580;-35
2021/12/07 00:11:17;;;;;;;30.60;21.30;;;2.10;99.90;;;;;;5006535;28;20155;-37
2021/12/07 00:13:43;;;;;;;30.73;21.20;;;2.10;99.90;;;;;;5010831;28;20072;-36
2021/12/07 00:16:10;;;;;;;29.10;20.20;;;2.10;99.90;;;;;;5001283;28;20037;-36
2021/12/07 00:18:37;;;;;;;31.53;21.83;;;2.10;99.90;;;;;;5001237;28;20045;-36
2021/12/07 00:21:05;;;;;;;30.77;21.43;;;2.10;99.90;;;;;;5006168;28;20418;-36
2021/12/07 00:23:31;;;;;;;29.83;20.20;;;2.10;99.90;;;;;;5005248;28;20172;-37
2021/12/07 00:25:57;;;;;;;28.87;20.63;;;2.10;99.90;;;;;;5005574;28;20506;-37
2021/12/07 00:28:23;;;;;;;30.90;20.20;;;2.10;99.90;;;;;;4991462;28;20046;-36
2021/12/07 00:30:51;;;;;;;28.20;19.53;;;2.00;99.90;;;;;;5022572;28;20590;-37
2021/12/07 00:34:10;;;;;;;29.30;20.47;;;2.00;99.90;;;;;;5005773;28;20297;-37
2021/12/07 00:36:05;;;;;;;28.20;19.27;;;2.00;99.90;;;;;;5005364;28;20084;-36
2021/12/07 00:38:31;;;;;;;27.40;19.80;;;1.90;99.90;;;;;;4999020;28;20580;-34
2021/12/07 00:40:58;;;;;;;29.40;20.27;;;1.90;99.90;;;;;;5008517;28;20109;-35
2021/12/07 00:43:26;;;;;;;27.80;19.60;;;1.90;99.90;;;;;;5007301;28;20053;-37
2021/12/07 00:45:54;;;;;;;30.07;19.60;;;1.90;99.90;;;;;;5010102;28;20073;-37
2021/12/07 00:48:20;;;;;;;28.43;19.93;;;1.90;99.90;;;;;;4992212;28;20561;-36
2021/12/07 00:50:48;;;;;;;29.00;19.73;;;1.90;99.90;;;;;;5007395;28;20034;-37
2021/12/07 00:53:14;;;;;;;28.10;19.33;;;1.90;99.90;;;;;;5012088;28;20501;-36
2021/12/07 00:55:46;;;;;;;26.37;19.60;;;1.90;99.90;;;;;;5022497;28;20448;-37
2021/12/07 00:58:18;;;;;;;26.43;19.40;;;1.90;99.90;;;;;;4991144;28;20052;-36
2021/12/07 01:00:45;;;;;;;26.88;18.83;;;1.80;99.90;;;;;;5007270;28;20068;-37
2021/12/07 01:03:12;;;;;;;27.07;19.87;;;1.80;99.90;;;;;;5006224;28;20497;-37
2021/12/07 01:05:40;;;;;;;24.50;18.57;;;1.80;99.90;;;;;;5013024;28;20056;-35
2021/12/07 01:27:19;;;;;;;24.07;17.20;;;1.60;99.90;;;;;;4949953;28;20043;-37
2021/12/07 01:29:49;;;;;;;23.60;16.87;;;1.50;99.90;;;;;;4988771;28;20042;-37
2021/12/07 01:32:47;;;;;;;23.60;17.10;;;1.50;99.90;;;;;;4986386;28;20708;-36
2021/12/07 01:38:20;;;;;;;22.20;16.30;;;1.50;99.90;;;;;;4975902;28;20056;-35
2021/12/07 02:01:48;;;;;;;25.80;16.87;;;1.40;99.90;;;;;;4989393;28;20069;-36
2021/12/07 02:04:15;;;;;;;20.67;16.40;;;1.40;99.90;;;;;;4990966;28;20038;-37
2021/12/07 02:06:41;;;;;;;23.53;17.47;;;1.40;99.90;;;;;;4974075;28;20449;-36
2021/12/07 02:09:08;;;;;;;22.40;16.37;;;1.40;99.90;;;;;;4984532;28;20440;-36
2021/12/07 02:11:34;;;;;;;21.17;15.80;;;1.40;99.90;;;;;;4987772;28;20117;-36
2021/12/07 02:16:29;;;;;;;22.10;16.80;;;1.40;99.90;;;;;;4997617;28;20590;-37
2021/12/07 02:18:55;;;;;;;21.27;16.50;;;1.40;99.90;;;;;;5004062;28;20471;-36
2021/12/07 02:21:26;;;;;;;23.63;16.80;;;1.40;99.90;;;;;;5024254;28;20077;-36
2021/12/07 02:23:53;;;;;;;23.70;16.42;;;1.40;99.90;;;;;;5003754;28;20132;-36
2021/12/07 02:26:20;;;;;;;21.47;16.20;;;1.40;99.90;;;;;;4992365;28;20375;-37
2021/12/07 02:28:47;;;;;;;20.30;15.67;;;1.40;99.90;;;;;;4998969;28;20557;-36
2021/12/07 02:31:13;;;;;;;21.20;15.97;;;1.30;99.90;;;;;;5005792;28;20058;-37
2021/12/07 02:33:39;;;;;;;21.07;16.60;;;1.40;99.90;;;;;;5002777;28;20045;-38
2021/12/07 02:36:06;;;;;;;24.03;17.77;;;1.40;99.90;;;;;;5005157;28;20465;-37
2021/12/07 02:38:33;;;;;;;23.03;17.47;;;1.40;99.90;;;;;;4995679;28;20141;-37
2021/12/07 02:40:58;;;;;;;22.53;17.70;;;1.40;99.90;;;;;;5009005;28;20046;-34
2021/12/07 02:43:27;;;;;;;22.27;16.83;;;1.40;99.90;;;;;;5004527;28;20456;-37
2021/12/07 02:45:53;;;;;;;24.73;17.77;;;1.40;99.90;;;;;;5005240;28;20505;-37
2021/12/07 02:48:21;;;;;;;23.97;16.97;;;1.40;99.90;;;;;;4986511;28;20053;-35
2021/12/07 02:50:48;;;;;;;26.03;17.27;;;1.40;99.90;;;;;;5005203;28;20080;-34
2021/12/07 02:53:14;;;;;;;22.00;16.63;;;1.40;99.90;;;;;;5003912;28;20054;-36
2021/12/07 02:55:39;;;;;;;23.47;17.03;;;1.40;99.90;;;;;;5005025;28;20053;-36
2021/12/07 02:58:05;;;;;;;22.47;16.43;;;1.40;99.90;;;;;;5003897;28;20120;-36
2021/12/07 03:00:41;;;;;;;22.27;16.10;;;1.40;99.90;;;;;;5004767;28;20042;-36
2021/12/07 03:03:10;;;;;;;20.67;15.03;;;1.40;99.90;;;;;;5002674;28;20042;-36
2021/12/07 03:05:57;;;;;;;22.50;15.20;;;1.40;99.90;;;;;;5004650;28;20706;-36
2021/12/07 03:27:16;;;;;;;18.10;13.30;;;1.30;99.90;;;;;;4988205;28;20042;-36
2021/12/07 03:29:42;;;;;;;18.63;13.50;;;1.30;99.90;;;;;;4983379;28;20313;-36
2021/12/07 03:32:08;;;;;;;17.13;13.13;;;1.30;99.90;;;;;;4998836;28;20050;-36
2021/12/07 03:34:33;;;;;;;16.33;12.67;;;1.40;99.90;;;;;;4989703;28;20052;-37
2021/12/07 03:36:59;;;;;;;19.43;12.80;;;1.20;99.90;;;;;;4977265;28;20113;-33
2021/12/07 03:39:25;;;;;;;17.30;12.10;;;1.20;99.90;;;;;;4991644;28;20054;-37
2021/12/07 03:41:51;;;;;;;17.30;13.10;;;1.20;99.90;;;;;;4987156;28;20058;-37
2021/12/07 03:44:17;;;;;;;16.23;11.73;;;1.10;99.90;;;;;;4986534;28;20038;-36
2021/12/07 03:46:43;;;;;;;16.60;11.93;;;1.10;99.90;;;;;;4975378;28;20406;-36
2021/12/07 03:49:10;;;;;;;16.03;11.13;;;1.10;99.90;;;;;;4988021;28;20335;-36
2021/12/07 03:51:36;;;;;;;17.47;12.07;;;1.00;99.90;;;;;;4989014;28;20461;-35
2021/12/07 03:54:03;;;;;;;17.27;12.10;;;1.00;99.90;;;;;;4988952;28;20046;-37
2021/12/07 03:56:29;;;;;;;16.57;11.90;;;1.00;99.90;;;;;;4976487;28;20206;-37
2021/12/07 03:58:55;;;;;;;15.40;11.33;;;1.00;99.90;;;;;;4988525;28;20348;-37
2021/12/07 04:01:23;;;;;;;15.77;11.77;;;1.00;99.90;;;;;;4990890;28;20501;-36
2021/12/07 04:03:52;;;;;;;17.10;11.43;;;1.00;99.90;;;;;;4988040;28;20054;-37
2021/12/07 04:06:18;;;;;;;15.07;11.47;;;0.90;99.90;;;;;;4977144;28;20077;-36
2021/12/07 04:08:45;;;;;;;16.80;11.20;;;1.00;99.90;;;;;;5027951;28;20060;-37
2021/12/07 04:11:12;;;;;;;15.97;10.97;;;0.90;99.90;;;;;;5009503;28;20489;-36
2021/12/07 04:13:40;;;;;;;16.80;11.43;;;0.90;99.90;;;;;;5011540;28;20126;-36
2021/12/07 04:16:09;;;;;;;15.30;10.93;;;0.90;99.90;;;;;;5005330;28;20135;-38
2021/12/07 04:18:35;;;;;;;14.87;11.53;;;0.80;99.90;;;;;;5003175;28;20125;-37
2021/12/07 04:21:02;;;;;;;16.37;11.43;;;0.90;99.90;;;;;;5008386;28;20077;-36
2021/12/07 04:23:30;;;;;;;16.37;11.90;;;0.90;99.90;;;;;;4995757;28;20050;-36
2021/12/07 04:25:55;;;;;;;16.17;12.07;;;0.80;99.90;;;;;;4987835;28;20054;-36
2021/12/07 04:28:21;;;;;;;20.60;12.63;;;0.90;99.90;;;;;;4971998;28;20046;-36
2021/12/07 04:30:47;;;;;;;20.27;13.10;;;0.90;99.90;;;;;;4988310;28;20520;-36
2021/12/07 04:33:13;;;;;;;18.63;12.23;;;0.80;99.90;;;;;;4987758;28;20133;-37
2021/12/07 04:35:45;;;;;;;17.50;11.87;;;0.80;99.90;;;;;;4990635;28;20478;-35
2021/12/07 04:38:12;;;;;;;18.37;12.00;;;0.80;99.90;;;;;;4973710;28;20085;-36
2021/12/07 04:40:38;;;;;;;16.97;11.80;;;0.80;99.90;;;;;;4988145;28;20461;-36
2021/12/07 04:43:05;;;;;;;16.80;11.73;;;0.80;99.90;;;;;;4987231;28;20039;-37
2021/12/07 04:59:09;;;;;;;13.83;10.27;;;0.90;99.90;;;;;;4992325;28;20045;-38
2021/12/07 05:01:35;;;;;;;17.47;10.70;;;0.90;99.90;;;;;;4989571;28;20426;-37
2021/12/07 05:04:03;;;;;;;16.00;10.30;;;0.90;99.90;;;;;;5002703;28;20045;-37
2021/12/07 05:06:32;;;;;;;18.33;10.43;;;0.90;99.90;;;;;;4993028;28;20513;-37
2021/12/07 05:09:05;;;;;;;16.53;10.57;;;0.80;99.90;;;;;;5004727;28;20050;-36
2021/12/07 05:11:49;;;;;;;18.97;11.20;;;0.90;99.90;;;;;;5005086;28;20045;-36
2021/12/07 05:14:20;;;;;;;17.77;11.13;;;1.00;99.90;;;;;;5006513;28;20218;-36
2021/12/07 05:38:26;;;;;;;16.80;11.07;;;1.10;99.90;;;;;;4995317;28;20635;-36
2021/12/07 05:40:51;;;;;;;21.83;11.03;;;1.10;99.90;;;;;;5006990;28;20124;-37
2021/12/07 05:43:17;;;;;;;21.10;11.17;;;1.10;99.90;;;;;;5005177;28;20084;-36
2021/12/07 05:45:43;;;;;;;22.10;11.17;;;1.10;99.90;;;;;;5006003;28;20050;-36
2021/12/07 05:48:09;;;;;;;19.10;11.30;;;1.10;99.90;;;;;;4990946;28;20089;-36
2021/12/07 05:50:38;;;;;;;17.47;10.53;;;1.10;99.90;;;;;;5006675;28;20676;-36
2021/12/07 05:53:07;;;;;;;19.37;11.17;;;1.20;99.90;;;;;;5007373;28;20521;-36
2021/12/07 05:55:33;;;;;;;19.63;10.80;;;1.20;99.90;;;;;;5004047;28;20062;-36
2021/12/07 05:57:59;;;;;;;17.07;9.80;;;1.20;99.90;;;;;;4991009;28;20144;-36
2021/12/07 06:00:27;;;;;;;19.33;9.83;;;1.30;99.90;;;;;;5037199;28;20132;-36
2021/12/07 06:02:59;;;;;;;17.77;8.97;;;1.20;99.90;;;;;;5004662;28;20132;-37
2021/12/07 06:05:26;;;;;;;20.30;9.20;;;1.30;99.90;;;;;;5005082;28;20046;-37
2021/12/07 06:07:52;;;;;;;23.40;8.33;;;1.30;99.90;;;;;;5025366;28;20045;-37
2021/12/07 06:10:19;;;;;;;19.83;8.87;;;1.40;99.90;;;;;;5005553;28;20041;-36
2021/12/07 06:12:45;;;;;;;18.33;9.13;;;1.50;99.90;;;;;;5004951;28;20639;-37
2021/12/07 06:15:12;;;;;;;19.40;8.80;;;1.50;99.90;;;;;;5036225;28;20057;-36
2021/12/07 06:17:38;;;;;;;21.20;8.60;;;1.60;99.90;;;;;;4994121;28;20397;-35
2021/12/07 06:20:06;;;;;;;19.27;8.70;;;1.70;99.90;;;;;;5004485;28;20397;-36
2021/12/07 06:22:32;;;;;;;18.70;8.33;;;1.70;99.90;;;;;;5001620;28;20069;-37
2021/12/07 06:24:58;;;;;;;19.50;8.80;;;1.70;99.90;;;;;;4985013;28;20054;-36
2021/12/07 06:27:23;;;;;;;20.43;8.90;;;1.80;99.90;;;;;;4971838;28;20064;-36
2021/12/07 06:29:49;;;;;;;17.17;8.50;;;1.80;99.90;;;;;;4989891;28;20038;-36
2021/12/07 06:32:15;;;;;;;25.00;12.50;;;1.80;99.90;;;;;;4985301;28;20994;-36
2021/12/07 06:34:40;;;;;;;23.37;11.00;;;1.80;99.90;;;;;;5016147;28;20085;-35
2021/12/07 06:37:06;;;;;;;20.40;10.80;;;1.80;99.90;;;;;;4973762;28;20499;-37
2021/12/07 06:39:33;;;;;;;18.90;10.23;;;1.80;99.90;;;;;;4987292;28;20042;-35
2021/12/07 06:41:59;;;;;;;19.37;10.20;;;1.80;99.90;;;;;;4986214;28;20049;-36
2021/12/07 06:44:25;;;;;;;16.47;9.53;;;1.70;99.90;;;;;;4985281;28;20438;-36
2021/12/07 06:46:51;;;;;;;18.10;10.67;;;1.70;99.90;;;;;;4971881;28;20413;-36
2021/12/07 06:49:18;;;;;;;22.37;10.53;;;1.70;99.90;;;;;;4981870;28;20052;-36
2021/12/07 06:51:45;;;;;;;20.23;9.47;;;1.60;99.90;;;;;;4985162;28;20100;-36
2021/12/07 06:54:11;;;;;;;16.33;9.03;;;1.70;99.90;;;;;;4998892;28;20056;-37
2021/12/07 06:56:37;;;;;;;18.97;9.20;;;1.70;99.90;;;;;;4988167;28;20042;-37
2021/12/07 06:59:04;;;;;;;17.33;9.60;;;1.70;99.90;;;;;;4982802;28;20038;-36
2021/12/07 07:01:30;;;;;;;20.93;9.07;;;1.60;99.90;;;;;;4987938;28;20086;-36
2021/12/07 07:03:56;;;;;;;18.80;8.93;;;1.60;99.90;;;;;;4985483;28;20121;-36
2021/12/07 07:06:22;;;;;;;18.93;8.97;;;1.50;99.90;;;;;;5007117;28;20513;-37
2021/12/07 07:08:50;;;;;;;20.40;9.17;;;1.60;99.90;;;;;;5011452;28;20132;-36
2021/12/07 07:11:19;;;;;;;16.77;7.93;;;1.60;99.90;;;;;;5010037;28;20057;-37
2021/12/07 07:13:46;;;;;;;19.97;7.83;;;1.60;99.90;;;;;;5005740;28;20046;-36
2021/12/07 07:16:12;;;;;;;23.57;8.53;;;1.50;99.90;;;;;;5010721;28;20055;-36
2021/12/07 07:18:39;;;;;;;17.47;8.30;;;1.50;99.90;;;;;;5001176;28;20152;-37
2021/12/07 07:21:06;;;;;;;23.30;8.40;;;1.50;99.90;;;;;;5004183;28;20069;-37
2021/12/07 07:23:32;;;;;;;16.73;9.07;;;1.50;99.90;;;;;;5003449;28;20050;-36
2021/12/07 07:25:58;;;;;;;22.83;12.87;;;1.50;99.90;;;;;;5002522;28;20062;-36
2021/12/07 07:28:25;;;;;;;22.17;10.43;;;1.50;99.90;;;;;;4988025;28;20077;-37
2021/12/07 07:30:51;;;;;;;19.47;8.33;;;1.50;99.90;;;;;;5003990;28;20037;-36
2021/12/07 07:33:17;;;;;;;18.43;8.80;;;1.50;99.90;;;;;;5002517;28;20137;-35
2021/12/07 07:35:43;;;;;;;21.00;10.23;;;1.50;99.90;;;;;;5018443;28;20125;-37
2021/12/07 07:38:09;;;;;;;20.73;9.63;;;1.50;99.90;;;;;;4992115;28;20128;-37
2021/12/07 07:40:35;;;;;;;21.83;10.77;;;1.50;99.90;;;;;;5004649;28;20045;-36
2021/12/07 07:43:01;;;;;;;26.33;12.30;;;1.50;99.90;;;;;;5002862;28;20046;-36
2021/12/07 07:45:27;;;;;;;23.80;9.63;;;1.40;99.90;;;;;;5003809;28;20077;-36
2021/12/07 07:47:52;;;;;;;25.57;9.10;;;1.40;99.90;;;;;;4988675;28;20223;-37
2021/12/07 07:50:18;;;;;;;25.90;11.83;;;1.40;99.90;;;;;;5004625;28;20582;-37
2021/12/07 07:52:44;;;;;;;22.87;11.73;;;1.40;99.90;;;;;;5002590;28;20046;-37
2021/12/07 07:55:11;;;;;;;28.70;13.77;;;1.40;99.90;;;;;;5003440;28;20037;-36
2021/12/07 07:57:38;;;;;;;30.13;14.20;;;1.40;99.90;;;;;;4988642;28;20046;-36
2021/12/07 08:00:07;;;;;;;37.87;19.43;;;1.30;99.90;;;;;;4995018;28;20049;-36
2021/12/07 08:02:33;;;;;;;34.83;17.73;;;1.30;99.90;;;;;;5001683;28;20107;-37
2021/12/07 08:04:59;;;;;;;46.77;23.73;;;1.30;99.90;;;;;;4985391;28;20045;-35
2021/12/07 08:07:25;;;;;;;46.53;24.80;;;1.30;99.90;;;;;;4989368;28;20128;-37
2021/12/07 08:09:50;;;;;;;37.90;19.47;;;1.30;99.90;;;;;;5004138;28;20054;-37
2021/12/07 08:12:16;;;;;;;35.20;19.17;;;1.30;99.90;;;;;;5007450;28;20589;-36
2021/12/07 08:14:42;;;;;;;30.97;16.67;;;1.30;99.90;;;;;;5007430;28;20052;-36
2021/12/07 08:17:07;;;;;;;19.43;11.33;;;1.30;99.90;;;;;;4993035;28;20049;-36
2021/12/07 08:19:33;;;;;;;25.50;12.43;;;1.30;99.90;;;;;;5009674;28;20040;-36
2021/12/07 08:21:59;;;;;;;36.03;16.97;;;1.30;99.90;;;;;;5014042;28;20551;-37
2021/12/07 08:24:25;;;;;;;25.60;12.33;;;1.20;99.90;;;;;;5013894;28;20111;-34
2021/12/07 08:26:50;;;;;;;24.87;11.73;;;1.30;99.90;;;;;;5008866;28;20049;-36
2021/12/07 08:29:16;;;;;;;21.90;10.10;;;1.30;99.90;;;;;;5006373;28;20257;-35
2021/12/07 08:31:43;;;;;;;28.47;12.90;;;1.30;99.90;;;;;;5002733;28;20065;-36
2021/12/07 08:34:09;;;;;;;20.77;11.63;;;1.30;99.90;;;;;;5006121;28;20153;-37
2021/12/07 08:36:35;;;;;;;27.07;13.03;;;1.30;99.90;;;;;;4993715;28;20121;-37
2021/12/07 08:39:02;;;;;;;29.13;15.00;;;1.30;99.90;;;;;;5002859;28;20042;-36
2021/12/07 08:41:27;;;;;;;25.10;13.20;;;1.30;99.90;;;;;;5004477;28;20068;-37
2021/12/07 08:43:54;;;;;;;27.90;14.30;;;1.30;99.90;;;;;;5032704;28;20054;-34
2021/12/07 08:46:20;;;;;;;31.30;14.90;;;1.30;99.90;;;;;;5007789;28;20037;-36
2021/12/07 08:48:46;;;;;;;26.57;12.20;;;1.40;99.90;;;;;;4998166;28;20173;-36
2021/12/07 08:51:13;;;;;;;32.23;16.27;;;1.40;99.90;;;;;;4992831;28;20485;-35
2021/12/07 08:53:48;;;;;;;46.87;23.80;;;1.40;99.90;;;;;;4993883;28;20050;-36
2021/12/07 09:01:42;;;;;;;23.47;10.67;;;1.50;99.90;;;;;;4996505;28;20061;-37
2021/12/07 09:04:10;;;;;;;17.93;9.93;;;1.50;99.90;;;;;;4991452;28;20061;-36
2021/12/07 09:06:37;;;;;;;20.53;9.67;;;1.60;99.90;;;;;;4981670;28;20528;-36
2021/12/07 09:09:04;;;;;;;16.20;10.23;;;1.60;99.90;;;;;;4994178;28;20038;-36
2021/12/07 09:11:29;;;;;;;20.87;9.60;;;1.60;99.90;;;;;;4994956;28;20113;-37
2021/12/07 09:13:55;;;;;;;25.00;9.27;;;1.60;99.90;;;;;;5009948;28;20567;-37
2021/12/07 09:16:21;;;;;;;24.77;9.03;;;1.70;99.90;;;;;;5022513;28;20549;-37
2021/12/07 09:18:48;;;;;;;25.10;9.43;;;1.70;99.90;;;;;;5014344;28;20631;-36
2021/12/07 09:21:15;;;;;;;20.87;8.90;;;1.80;99.90;;;;;;5018718;28;20404;-37
2021/12/07 09:23:41;;;;;;;18.67;7.47;;;1.80;99.90;;;;;;5003063;28;20391;-37
2021/12/07 09:26:09;;;;;;;20.43;7.83;;;1.80;99.90;;;;;;4989641;28;20064;-37
2021/12/07 09:28:35;;;;;;;20.40;7.30;;;1.90;99.90;;;;;;4983842;28;20505;-37
2021/12/07 09:31:01;;;;;;;22.93;8.43;;;1.90;99.90;;;;;;4992146;28;20043;-36
2021/12/07 09:33:28;;;;;;;21.87;7.43;;;2.00;99.90;;;;;;4996029;28;20460;-37
2021/12/07 09:35:55;;;;;;;22.17;8.03;;;2.00;99.90;;;;;;5019868;28;20065;-36
2021/12/07 09:38:23;;;;;;;20.87;7.53;;;2.10;99.90;;;;;;5010185;28;20054;-35
2021/12/07 09:40:50;;;;;;;21.43;7.17;;;2.20;99.90;;;;;;5018325;28;20507;-36
2021/12/07 09:43:17;;;;;;;21.27;6.97;;;2.20;99.90;;;;;;5019226;28;20499;-37
2021/12/07 09:45:43;;;;;;;17.93;6.57;;;2.30;99.90;;;;;;5012675;28;20111;-35
2021/12/07 09:48:11;;;;;;;19.50;7.40;;;2.50;99.90;;;;;;4992608;28;20046;-36
2021/12/07 09:50:44;;;;;;;23.73;7.63;;;2.60;99.90;;;;;;4991895;28;20050;-37
2021/12/07 09:53:13;;;;;;;19.20;6.80;;;2.80;99.90;;;;;;4989881;28;20038;-37
2021/12/07 09:55:39;;;;;;;22.40;7.07;;;2.90;99.90;;;;;;5000084;28;20089;-37
2021/12/07 09:58:06;;;;;;;23.13;7.10;;;3.10;99.90;;;;;;4997801;28;20049;-36
2021/12/07 10:00:33;;;;;;;22.50;7.57;;;3.20;99.90;;;;;;5018866;28;20041;-36
2021/12/07 10:02:59;;;;;;;19.10;6.87;;;3.30;99.90;;;;;;5005603;28;20061;-35
2021/12/07 10:05:27;;;;;;;23.47;7.10;;;3.40;99.90;;;;;;4995094;28;20556;-36
2021/12/07 10:07:53;;;;;;;22.80;6.70;;;3.50;99.90;;;;;;4976380;28;20053;-35
2021/12/07 10:10:34;;;;;;;21.53;7.37;;;3.60;99.90;;;;;;5000348;28;20157;-37
2021/12/07 10:13:01;;;;;;;19.85;5.95;;;3.70;99.90;;;;;;4993052;28;20422;-37
2021/12/07 10:15:27;;;;;;;16.17;6.47;;;3.80;99.90;;;;;;4990011;28;20598;-36
2021/12/07 10:18:05;;;;;;;19.03;6.40;;;4.00;99.90;;;;;;4977508;28;20132;-37
2021/12/07 10:20:39;;;;;;;16.97;6.33;;;4.10;99.90;;;;;;4991297;28;20133;-35
2021/12/07 10:23:39;;;;;;;19.03;6.23;;;4.30;99.90;;;;;;4989236;28;20041;-37
2021/12/07 10:26:14;;;;;;;17.50;6.23;;;4.30;99.90;;;;;;4994298;28;20057;-38
2021/12/07 10:28:47;;;;;;;11.90;4.90;;;4.40;99.90;;;;;;5009180;28;20498;-38
2021/12/07 10:31:27;;;;;;;13.77;5.27;;;4.60;99.90;;;;;;5029147;28;20053;-36
2021/12/07 10:34:01;;;;;;;13.67;4.77;;;4.70;99.90;;;;;;4991570;28;20042;-37
2021/12/07 10:36:52;;;;;;;11.57;4.60;;;5.00;99.90;;;;;;4982794;28;20529;-37
2021/12/07 10:39:21;;;;;;;15.03;4.10;;;5.20;99.90;;;;;;4993106;28;20065;-37
2021/12/07 10:41:58;;;;;;;13.80;4.20;;;5.40;99.90;;;;;;4984061;28;20049;-37
2021/12/07 10:44:27;;;;;;;9.97;3.87;;;5.60;99.90;;;;;;4993657;28;20043;-37
2021/12/07 10:47:00;;;;;;;11.97;4.00;;;5.80;99.90;;;;;;4982455;28;20053;-37
2021/12/07 10:49:32;;;;;;;13.43;3.90;;;5.90;99.90;;;;;;4996386;28;20049;-37
2021/12/07 10:52:17;;;;;;;12.43;3.40;;;6.10;99.90;;;;;;4993147;28;20065;-37
2021/12/07 10:54:54;;;;;;;12.57;3.33;;;6.20;99.90;;;;;;5010838;28;20057;-38
2021/12/07 10:57:24;;;;;;;14.80;3.50;;;6.30;99.90;;;;;;4996515;28;20046;-38
2021/12/07 11:00:11;;;;;;;10.70;3.70;;;6.30;99.90;;;;;;5014201;28;20088;-37
2021/12/07 11:02:44;;;;;;;10.23;3.20;;;6.40;99.90;;;;;;5008757;28;20363;-38
2021/12/07 11:05:15;;;;;;;11.90;3.03;;;6.40;99.90;;;;;;5015317;28;20505;-37
2021/12/07 11:07:41;;;;;;;;;;;6.60;99.90;;;;;;4993912;28;20899;-35
2021/12/07 11:10:18;;;;;;;15.90;3.83;;;6.40;99.90;;;;;;4994197;28;20022;-36
2021/12/07 11:13:00;;;;;;;11.50;3.50;;;6.50;99.90;;;;;;5003448;28;20099;-37
2021/12/07 11:15:32;;;;;;;13.07;3.53;;;6.50;99.90;;;;;;5017890;28;20378;-37
2021/12/07 11:18:00;;;;;;;;;;;6.40;99.90;;;;;;4989867;28;20057;-37
2021/12/07 11:20:28;;;;;;;10.17;3.40;;;6.40;99.90;;;;;;4997017;28;19925;-36
2021/12/07 11:23:03;;;;;;;11.47;3.57;;;6.50;99.90;;;;;;4998929;28;20054;-37
2021/12/07 11:31:33;;;;;;;13.53;4.60;;;6.50;99.90;;;;;;4999732;28;20136;-38
2021/12/07 11:34:26;;;;;;;12.30;3.83;;;6.40;99.90;;;;;;5013647;28;20045;-38
2021/12/07 11:37:08;;;;;;;15.00;4.00;;;6.50;99.90;;;;;;4999659;28;20542;-38
2021/12/07 11:39:37;;;;;;;13.30;4.10;;;6.40;99.90;;;;;;5009275;28;20042;-38
2021/12/07 11:42:10;;;;;;;12.73;3.67;;;6.50;99.90;;;;;;5011446;28;20042;-37
2021/12/07 11:44:47;;;;;;;14.73;3.73;;;6.50;99.90;;;;;;5013717;28;20049;-38
2021/12/07 11:47:12;;;;;;;13.90;3.57;;;6.60;99.90;;;;;;5001164;28;20050;-37
2021/12/07 11:49:38;;;;;;;13.00;3.23;;;6.60;99.90;;;;;;5015789;28;20494;-37
2021/12/07 11:52:07;;;;;;;13.30;3.40;;;6.60;99.90;;;;;;5012058;28;20057;-37
2021/12/07 11:54:40;;;;;;;12.77;3.53;;;6.70;99.90;;;;;;5016038;28;20076;-38
2021/12/07 11:57:09;;;;;;;16.67;3.57;;;6.60;99.90;;;;;;5000745;28;20604;-36
2021/12/07 11:59:36;;;;;;;14.13;3.60;;;6.50;99.90;;;;;;5019428;28;20096;-37
2021/12/07 12:02:02;;;;;;;15.30;3.77;;;6.50;99.90;;;;;;5021072;28;20119;-37
2021/12/07 12:04:27;;;;;;;11.43;3.67;;;6.50;99.90;;;;;;5003055;28;20501;-37
2021/12/07 12:06:57;;;;;;;12.03;3.77;;;6.40;99.90;;;;;;5003340;28;20065;-37
2021/12/07 12:09:24;;;;;;;14.73;3.33;;;6.40;99.90;;;;;;5034536;28;20540;-36
2021/12/07 12:12:28;;;;;;;13.73;3.60;;;6.40;99.90;;;;;;4997370;28;20477;-37
2021/12/07 12:14:57;;;;;;;14.83;3.60;;;6.30;99.90;;;;;;5018004;28;20377;-37
2021/12/07 12:17:34;;;;;;;11.53;3.43;;;6.30;99.90;;;;;;5001631;28;20092;-37
2021/12/07 12:20:20;;;;;;;15.17;4.10;;;6.30;99.90;;;;;;5016764;28;20050;-35
2021/12/07 12:22:59;;;;;;;15.17;3.83;;;6.30;99.90;;;;;;5016728;28;20140;-37
2021/12/07 12:25:27;;;;;;;10.20;3.43;;;6.30;99.90;;;;;;5021108;28;20045;-37
2021/12/07 12:27:57;;;;;;;16.30;4.10;;;6.30;99.90;;;;;;5001456;28;20560;-38
2021/12/07 12:30:30;;;;;;;15.23;3.40;;;6.30;99.90;;;;;;5016702;28;20034;-36
2021/12/07 12:33:13;;;;;;;13.83;3.70;;;6.30;99.90;;;;;;5010859;28;20221;-37
2021/12/07 12:35:49;;;;;;;15.30;3.50;;;6.30;99.90;;;;;;5002983;28;20046;-35
2021/12/07 12:38:20;;;;;;;13.47;3.80;;;6.30;99.90;;;;;;4989268;28;20045;-36
2021/12/07 12:41:02;;;;;;;11.73;3.90;;;6.40;99.90;;;;;;5018206;28;20046;-37
2021/12/07 12:43:45;;;;;;;13.97;4.13;;;6.30;99.90;;;;;;5002829;28;20050;-36
2021/12/07 12:46:16;;;;;;;13.33;3.80;;;6.30;99.90;;;;;;4994576;28;20149;-36
2021/12/07 12:48:46;;;;;;;16.63;3.72;;;6.20;99.90;;;;;;4997391;28;20436;-36
2021/12/07 12:51:12;;;;;;;13.80;4.07;;;6.20;99.90;;;;;;5000266;28;20133;-37
2021/12/07 12:53:37;;;;;;;16.20;4.23;;;6.20;99.90;;;;;;4998218;28;20561;-37
2021/12/07 12:56:24;;;;;;;19.40;4.00;;;6.20;99.90;;;;;;5003346;28;20453;-36
2021/12/07 12:58:57;;;;;;;16.97;4.33;;;6.10;99.90;;;;;;5009421;28;20495;-37
2021/12/07 13:01:28;;;;;;;11.23;3.90;;;6.10;99.90;;;;;;5017269;28;20456;-38
2021/12/07 13:04:10;;;;;;;12.70;4.13;;;6.10;99.90;;;;;;5017461;28;20057;-36
2021/12/07 13:09:43;;;;;;;13.70;4.30;;;6.10;99.90;;;;;;5020757;28;20049;-37
2021/12/07 13:12:22;;;;;;;16.83;4.03;;;6.00;99.90;;;;;;5020122;28;20081;-37
2021/12/07 13:14:52;;;;;;;13.67;4.07;;;6.00;99.90;;;;;;5015257;28;20074;-37
2021/12/07 13:17:26;;;;;;;14.73;4.10;;;6.00;99.90;;;;;;5004060;28;20054;-37
2021/12/07 13:20:15;;;;;;;18.87;4.40;;;5.90;99.90;;;;;;5015562;28;20053;-36
2021/12/07 13:22:46;;;;;;;14.57;4.27;;;5.90;99.90;;;;;;5014740;28;20092;-36
2021/12/07 13:25:27;;;;;;;17.63;4.50;;;5.90;99.90;;;;;;5015976;28;20121;-37
2021/12/07 13:28:28;;;;;;;8.57;3.33;;;5.90;99.90;;;;;;5000882;28;20140;-37
2021/12/07 13:31:09;;;;;;;11.07;3.17;;;5.80;99.90;;;;;;5017080;28;20152;-37
2021/12/07 13:33:53;;;;;;;18.30;4.47;;;5.80;99.90;;;;;;5017485;28;20045;-37
2021/12/07 13:36:29;;;;;;;18.97;4.67;;;5.80;99.90;;;;;;5005650;28;20049;-37
2021/12/07 13:38:59;;;;;;;15.40;4.77;;;5.80;99.90;;;;;;5020509;28;20381;-36
2021/12/07 13:41:25;;;;;;;16.80;4.53;;;5.70;99.90;;;;;;5017524;28;20053;-36
2021/12/07 13:43:51;;;;;;;17.03;4.40;;;5.90;99.90;;;;;;5032000;28;20060;-37
2021/12/07 13:46:26;;;;;;;16.60;4.83;;;5.70;99.90;;;;;;5006086;28;20111;-37
2021/12/07 13:49:03;;;;;;;16.37;4.40;;;5.70;99.90;;;;;;5017065;28;20415;-37
2021/12/07 13:51:29;;;;;;;16.00;4.60;;;5.70;99.90;;;;;;5019242;28;20048;-37
2021/12/07 13:53:55;;;;;;;14.00;4.63;;;5.70;99.90;;;;;;5019408;28;20053;-36
2021/12/07 13:56:21;;;;;;;15.23;4.30;;;5.70;99.90;;;;;;5007999;28;20045;-37
2021/12/07 13:58:58;;;;;;;15.00;4.23;;;5.70;99.90;;;;;;5015104;28;20399;-38
2021/12/07 14:01:26;;;;;;;14.67;5.10;;;5.60;99.90;;;;;;5019094;28;20053;-37
2021/12/07 14:03:52;;;;;;;16.67;5.60;;;5.60;99.90;;;;;;5019013;28;20045;-37
2021/12/07 14:06:18;;;;;;;14.53;5.33;;;5.60;99.90;;;;;;5009041;28;20460;-37
2021/12/07 14:08:44;;;;;;;16.20;4.47;;;5.60;99.90;;;;;;5013306;28;20034;-36
2021/12/07 14:11:15;;;;;;;13.83;4.47;;;5.50;99.90;;;;;;5017149;28;20049;-37
2021/12/07 14:13:43;;;;;;;18.13;4.80;;;5.50;99.90;;;;;;5016980;28;20049;-37
2021/12/07 14:16:10;;;;;;;12.83;4.40;;;5.50;99.90;;;;;;5010790;28;20041;-37
2021/12/07 14:18:38;;;;;;;14.63;4.13;;;5.40;99.90;;;;;;5010070;28;20069;-37
2021/12/07 14:21:05;;;;;;;18.87;4.87;;;5.40;99.90;;;;;;5015319;28;20042;-37
2021/12/07 14:24:04;;;;;;;12.13;4.23;;;5.30;99.90;;;;;;5017385;28;20077;-38
2021/12/07 14:26:36;;;;;;;16.73;4.67;;;5.30;99.90;;;;;;5005794;28;20037;-37
2021/12/07 14:29:16;;;;;;;;;;;5.20;99.90;;;;;;5016975;28;20060;-37
2021/12/07 14:31:51;;;;;;;14.30;3.97;;;5.20;99.90;;;;;;5019410;28;20255;-37
2021/12/07 14:34:20;;;;;;;15.53;3.87;;;5.20;99.90;;;;;;5036950;28;20128;-36
2021/12/07 14:36:47;;;;;;;17.17;4.10;;;5.20;99.90;;;;;;5016559;28;20523;-38
2021/12/07 14:39:17;;;;;;;14.23;4.63;;;5.10;99.90;;;;;;5017698;28;20056;-37
2021/12/07 14:41:45;;;;;;;18.53;4.70;;;5.00;99.90;;;;;;5017611;28;20037;-37
2021/12/07 14:44:22;;;;;;;15.70;4.80;;;5.00;99.90;;;;;;5012650;28;20037;-35
2021/12/07 14:46:48;;;;;;;23.17;5.53;;;5.00;99.90;;;;;;5001890;28;20111;-36
2021/12/07 14:49:16;;;;;;;11.70;5.17;;;5.00;99.90;;;;;;5015657;28;20125;-36